Time;durP1;ratioP1;P1;durP2;ratioP2;P2;SDS_P1;SDS_P2;PMS_P1;PMS_P2;Temp;Humidity;BMP_temperature;BMP_pressure;BME280_temperature;BME280_humidity;BME280_pressure;Samples;Min_cycle;Max_cycle;Signal;HPM_P1;HPM_P2
2022/09/19 00:01:33;;;;;;;0.00;0.00;;;8.90;99.90;;;;;;5038997;28;20194;-62
2022/09/19 00:04:07;;;;;;;0.00;0.00;;;8.90;99.90;;;;;;5041905;28;20220;-62
2022/09/19 00:06:36;;;;;;;0.00;0.00;;;8.90;99.90;;;;;;5040331;28;20794;-61
2022/09/19 00:09:04;;;;;;;0.00;0.00;;;8.90;99.90;;;;;;5053516;28;20193;-62
2022/09/19 00:11:30;;;;;;;0.00;0.00;;;8.80;99.90;;;;;;5045536;28;20193;-61
2022/09/19 00:13:58;;;;;;;0.00;0.00;;;8.70;99.90;;;;;;5045751;28;20178;-62
2022/09/19 00:16:27;;;;;;;0.00;0.00;;;8.70;99.90;;;;;;5034454;28;20656;-62
2022/09/19 00:18:55;;;;;;;0.00;0.00;;;8.60;99.90;;;;;;5046274;28;20260;-62
2022/09/19 00:21:30;;;;;;;0.00;0.00;;;8.50;99.90;;;;;;5034327;28;20186;-62
2022/09/19 00:26:41;;;;;;;0.00;0.00;;;8.40;99.90;;;;;;5026027;28;20251;-62
2022/09/19 00:29:09;;;;;;;0.00;0.00;;;8.40;99.90;;;;;;5042359;28;20182;-62
2022/09/19 00:31:35;;;;;;;0.00;0.00;;;8.40;99.90;;;;;;5032870;28;20174;-62
2022/09/19 00:34:05;;;;;;;0.00;0.00;;;8.40;99.90;;;;;;5033539;28;20637;-62
2022/09/19 00:36:30;;;;;;;0.00;0.00;;;8.40;99.90;;;;;;5053031;28;20291;-62
2022/09/19 00:38:56;;;;;;;0.00;0.00;;;8.40;99.90;;;;;;5041693;28;20182;-62
2022/09/19 00:41:26;;;;;;;0.00;0.00;;;8.40;99.90;;;;;;5033162;28;20224;-62
2022/09/19 00:43:56;;;;;;;0.00;0.00;;;8.30;99.90;;;;;;5052639;28;20225;-62
2022/09/19 00:46:24;;;;;;;0.00;0.00;;;8.20;99.90;;;;;;5049768;28;20284;-62
2022/09/19 00:49:05;;;;;;;0.00;0.00;;;8.10;99.90;;;;;;5039928;28;20178;-62
2022/09/19 00:51:33;;;;;;;0.00;0.00;;;8.00;99.90;;;;;;5039780;28;20637;-62
2022/09/19 00:54:03;;;;;;;0.00;0.00;;;7.90;99.90;;;;;;5052649;28;20231;-62
2022/09/19 00:56:29;;;;;;;0.00;0.00;;;7.90;99.90;;;;;;5034000;28;20256;-62
2022/09/19 00:58:57;;;;;;;0.00;0.00;;;7.80;99.90;;;;;;5040169;28;20263;-62
2022/09/19 01:01:23;;;;;;;0.00;0.00;;;7.80;99.90;;;;;;5047121;28;20217;-62
2022/09/19 01:03:48;;;;;;;0.00;0.00;;;7.70;99.90;;;;;;5033102;28;20261;-62
2022/09/19 01:06:52;;;;;;;0.00;0.00;;;7.70;99.90;;;;;;5040002;28;20186;-62
2022/09/19 01:09:42;;;;;;;0.00;0.00;;;7.70;99.90;;;;;;5040776;28;20640;-62
2022/09/19 01:12:26;;;;;;;0.00;0.00;;;7.70;99.90;;;;;;5049401;28;20188;-62
2022/09/19 01:14:58;;;;;;;0.00;0.00;;;7.60;99.90;;;;;;5044343;28;20201;-62
2022/09/19 01:17:31;;;;;;;0.00;0.00;;;7.60;99.90;;;;;;5036991;28;20574;-62
2022/09/19 01:19:59;;;;;;;0.00;0.00;;;7.60;99.90;;;;;;5024929;28;20189;-62
2022/09/19 01:22:49;;;;;;;0.00;0.00;;;7.60;99.90;;;;;;5035396;28;20661;-62
2022/09/19 01:25:54;;;;;;;0.00;0.00;;;7.60;99.90;;;;;;5044883;28;20173;-62
2022/09/19 01:28:25;;;;;;;0.00;0.00;;;7.60;99.90;;;;;;5021363;28;20248;-62
2022/09/19 01:31:17;;;;;;;0.00;0.00;;;7.60;99.90;;;;;;5038658;28;20622;-62
2022/09/19 01:33:52;;;;;;;0.00;0.00;;;7.60;99.90;;;;;;5032264;28;20194;-62
2022/09/19 01:36:21;;;;;;;0.00;0.00;;;7.60;99.90;;;;;;5035100;28;20193;-62
2022/09/19 01:38:49;;;;;;;0.00;0.00;;;7.60;99.90;;;;;;5040661;28;20192;-62
2022/09/19 01:41:15;;;;;;;0.00;0.00;;;7.60;99.90;;;;;;5038326;28;20629;-62
2022/09/19 01:43:41;;;;;;;0.00;0.00;;;7.60;99.90;;;;;;5031905;28;20668;-62
2022/09/19 01:46:45;;;;;;;0.00;0.00;;;7.60;99.90;;;;;;5037989;28;20292;-62
2022/09/19 01:49:40;;;;;;;0.00;0.00;;;7.60;99.90;;;;;;5048003;28;20185;-61
2022/09/19 01:52:31;;;;;;;0.00;0.00;;;7.60;99.90;;;;;;5044657;28;20170;-62
2022/09/19 01:55:19;;;;;;;0.00;0.00;;;7.70;99.90;;;;;;5044640;28;20174;-62
2022/09/19 01:58:15;;;;;;;0.00;0.00;;;7.70;99.90;;;;;;5027568;28;20182;-62
2022/09/19 02:01:02;;;;;;;0.00;0.00;;;7.70;99.90;;;;;;5035167;28;20248;-62
2022/09/19 02:03:52;;;;;;;0.00;0.00;;;7.80;99.90;;;;;;5038383;28;20630;-62
2022/09/19 02:06:18;;;;;;;0.00;0.00;;;7.80;99.90;;;;;;5037663;28;20579;-62
2022/09/19 02:08:51;;;;;;;0.00;0.00;;;7.80;99.90;;;;;;5034447;28;20265;-62
2022/09/19 02:11:20;;;;;;;0.00;0.00;;;7.80;99.90;;;;;;5044534;28;20185;-62
2022/09/19 02:13:53;;;;;;;0.00;0.00;;;7.80;99.90;;;;;;5033317;28;20676;-62
2022/09/19 02:16:27;;;;;;;0.00;0.00;;;7.90;99.90;;;;;;5036867;28;20661;-62
2022/09/19 02:19:04;;;;;;;0.00;0.00;;;8.00;99.90;;;;;;5040395;28;20181;-62
2022/09/19 02:21:38;;;;;;;0.00;0.00;;;8.00;99.90;;;;;;5036989;28;20192;-62
2022/09/19 02:24:09;;;;;;;0.00;0.00;;;8.00;99.90;;;;;;5031565;28;20209;-62
2022/09/19 02:26:39;;;;;;;0.00;0.00;;;8.00;99.90;;;;;;5036649;28;20269;-63
2022/09/19 02:29:08;;;;;;;0.00;0.00;;;8.00;99.90;;;;;;5039559;28;20231;-62
2022/09/19 02:31:34;;;;;;;0.00;0.00;;;8.00;99.90;;;;;;5042357;28;20188;-63
2022/09/19 02:34:05;;;;;;;0.00;0.00;;;8.10;99.90;;;;;;5049478;28;20186;-62
2022/09/19 02:36:59;;;;;;;0.00;0.00;;;8.10;99.90;;;;;;5040364;28;20190;-62
2022/09/19 02:39:26;;;;;;;0.00;0.00;;;8.10;99.90;;;;;;5041477;28;20533;-63
2022/09/19 02:42:17;;;;;;;0.00;0.00;;;8.10;99.90;;;;;;5047723;28;20193;-63
2022/09/19 02:45:27;;;;;;;0.00;0.00;;;8.10;99.90;;;;;;5046453;28;20190;-62
2022/09/19 02:48:13;;;;;;;0.00;0.00;;;8.10;99.90;;;;;;5034050;28;20269;-62
2022/09/19 02:50:43;;;;;;;0.00;0.00;;;8.10;99.90;;;;;;5035631;28;20247;-62
2022/09/19 02:53:12;;;;;;;0.00;0.00;;;8.10;99.90;;;;;;5039429;28;20178;-62
2022/09/19 02:55:46;;;;;;;0.00;0.00;;;8.10;99.90;;;;;;5040839;28;20672;-63
2022/09/19 02:58:15;;;;;;;0.00;0.00;;;8.10;99.90;;;;;;5048125;28;20214;-63
2022/09/19 03:00:52;;;;;;;0.00;0.00;;;8.10;99.90;;;;;;5048226;28;20224;-62
2022/09/19 03:06:21;;;;;;;0.00;0.00;;;8.10;99.90;;;;;;5036078;28;20185;-62
2022/09/19 03:08:50;;;;;;;0.00;0.00;;;8.10;99.90;;;;;;5019364;28;20600;-62
2022/09/19 03:11:19;;;;;;;0.00;0.00;;;8.10;99.90;;;;;;5041463;28;20213;-62
2022/09/19 03:13:45;;;;;;;0.00;0.00;;;8.10;99.90;;;;;;5038734;28;20193;-62
2022/09/19 03:16:26;;;;;;;0.00;0.00;;;8.10;99.90;;;;;;5038200;28;20646;-62
2022/09/19 03:18:55;;;;;;;0.00;0.00;;;8.10;99.90;;;;;;5049025;28;20181;-62
2022/09/19 03:21:23;;;;;;;0.00;0.00;;;8.20;99.90;;;;;;5042314;28;20185;-62
2022/09/19 03:23:50;;;;;;;0.00;0.00;;;8.20;99.90;;;;;;5042070;28;20599;-62
2022/09/19 03:26:27;;;;;;;0.00;0.00;;;8.30;99.90;;;;;;5038241;28;20186;-62
2022/09/19 03:28:55;;;;;;;0.00;0.00;;;8.30;99.90;;;;;;5045372;28;20181;-63
2022/09/19 03:31:22;;;;;;;0.00;0.00;;;8.40;99.90;;;;;;5038353;28;20178;-63
2022/09/19 03:33:49;;;;;;;0.00;0.00;;;8.40;99.90;;;;;;5050848;28;20174;-62
2022/09/19 03:36:15;;;;;;;0.00;0.00;;;8.40;99.90;;;;;;5035621;28;20201;-61
2022/09/19 03:38:45;;;;;;;0.00;0.00;;;8.50;99.90;;;;;;5041704;28;20535;-64
2022/09/19 03:41:19;;;;;;;0.00;0.00;;;8.50;99.90;;;;;;5039677;28;20194;-64
2022/09/19 03:43:45;;;;;;;0.00;0.00;;;8.50;99.90;;;;;;5034017;28;20231;-63
2022/09/19 03:46:13;;;;;;;0.00;0.00;;;8.50;99.90;;;;;;5033469;28;20659;-62
2022/09/19 03:48:40;;;;;;;0.00;0.00;;;8.60;99.90;;;;;;5046076;28;20185;-59
2022/09/19 03:51:06;;;;;;;0.00;0.00;;;8.60;99.90;;;;;;5041940;28;20186;-63
2022/09/19 03:53:33;;;;;;;0.00;0.00;;;8.60;99.90;;;;;;5033543;28;20189;-64
2022/09/19 03:56:00;;;;;;;0.00;0.00;;;8.70;99.90;;;;;;5044051;28;20181;-63
2022/09/19 03:58:25;;;;;;;0.00;0.00;;;8.70;99.90;;;;;;5047992;28;20187;-62
2022/09/19 04:00:51;;;;;;;0.00;0.00;;;8.70;99.90;;;;;;5040873;28;20439;-64
2022/09/19 04:03:18;;;;;;;0.00;0.00;;;8.70;99.90;;;;;;5033294;28;20241;-64
2022/09/19 04:05:44;;;;;;;0.00;0.00;;;8.70;99.90;;;;;;5033100;28;20265;-65
2022/09/19 04:08:10;;;;;;;0.00;0.00;;;8.70;99.90;;;;;;5033456;28;20202;-64
2022/09/19 04:10:36;;;;;;;0.00;0.00;;;8.70;99.90;;;;;;5033588;28;20178;-63
2022/09/19 04:13:02;;;;;;;0.30;0.17;;;8.70;99.90;;;;;;5033708;28;20181;-62
2022/09/19 04:15:27;;;;;;;0.00;0.00;;;8.70;99.90;;;;;;5033407;28;20276;-64
2022/09/19 04:17:53;;;;;;;2.17;0.15;;;8.70;99.90;;;;;;5039126;28;20639;-63
2022/09/19 04:20:18;;;;;;;0.00;0.00;;;8.60;99.90;;;;;;5039847;28;20236;-62
2022/09/19 04:22:44;;;;;;;0.00;0.00;;;8.70;99.90;;;;;;5033076;28;20713;-63
2022/09/19 04:25:10;;;;;;;0.00;0.00;;;8.70;99.90;;;;;;5033260;28;20174;-63
2022/09/19 04:27:37;;;;;;;0.00;0.00;;;8.60;99.90;;;;;;5050135;28;20260;-63
2022/09/19 04:30:04;;;;;;;0.00;0.00;;;8.60;99.90;;;;;;5052343;28;20180;-63
2022/09/19 04:32:30;;;;;;;0.00;0.00;;;8.60;99.90;;;;;;5036354;28;20174;-63
2022/09/19 04:34:59;;;;;;;0.00;0.00;;;8.70;99.90;;;;;;5032979;28;20224;-63
2022/09/19 04:37:24;;;;;;;0.00;0.00;;;8.70;99.90;;;;;;5048461;28;20545;-63
2022/09/19 04:39:50;;;;;;;0.00;0.00;;;8.80;99.90;;;;;;5044756;28;20178;-65
2022/09/19 04:42:19;;;;;;;0.00;0.00;;;8.80;99.90;;;;;;5046990;28;20208;-59
2022/09/19 04:44:44;;;;;;;0.00;0.00;;;8.80;99.90;;;;;;5042769;28;20220;-63
2022/09/19 04:47:10;;;;;;;0.00;0.00;;;8.80;99.90;;;;;;5050922;28;20645;-63
2022/09/19 04:49:39;;;;;;;0.00;0.00;;;8.80;99.90;;;;;;5052495;28;20193;-62
2022/09/19 04:52:12;;;;;;;0.00;0.00;;;8.80;99.90;;;;;;5052785;28;20178;-63
2022/09/19 04:54:39;;;;;;;0.00;0.00;;;8.80;99.90;;;;;;5051661;28;20641;-63
2022/09/19 04:57:05;;;;;;;0.00;0.00;;;8.80;99.90;;;;;;5052433;28;20193;-63
2022/09/19 04:59:32;;;;;;;0.00;0.00;;;8.80;99.90;;;;;;5052608;28;20173;-62
2022/09/19 05:01:58;;;;;;;0.00;0.00;;;8.80;99.90;;;;;;5052402;28;20181;-63
2022/09/19 05:04:24;;;;;;;0.00;0.00;;;8.80;99.90;;;;;;5052533;28;20773;-63
2022/09/19 05:06:51;;;;;;;0.00;0.00;;;8.80;99.90;;;;;;5052667;28;20235;-63
2022/09/19 05:09:17;;;;;;;0.00;0.00;;;8.80;99.90;;;;;;5052562;28;20170;-62
2022/09/19 05:11:46;;;;;;;0.00;0.00;;;8.80;99.90;;;;;;5052412;28;20252;-63
2022/09/19 05:14:13;;;;;;;0.00;0.00;;;8.80;99.90;;;;;;5051982;28;20186;-62
2022/09/19 05:16:39;;;;;;;0.00;0.00;;;8.80;99.90;;;;;;5052545;28;20185;-63
2022/09/19 05:19:05;;;;;;;0.00;0.00;;;8.80;99.90;;;;;;5052347;28;20720;-62
2022/09/19 05:21:32;;;;;;;0.00;0.00;;;8.80;99.90;;;;;;5051273;28;20176;-62
2022/09/19 05:23:58;;;;;;;0.00;0.00;;;8.80;99.90;;;;;;5052368;28;20213;-62
2022/09/19 05:26:24;;;;;;;0.00;0.00;;;8.80;99.90;;;;;;5052376;28;20184;-63
2022/09/19 05:28:50;;;;;;;0.00;0.00;;;8.80;99.90;;;;;;5052456;28;20189;-63
2022/09/19 05:31:18;;;;;;;0.15;0.15;;;8.80;99.90;;;;;;5052320;28;20268;-62
2022/09/19 05:33:44;;;;;;;0.00;0.00;;;8.80;99.90;;;;;;5052474;28;20235;-62
2022/09/19 05:36:09;;;;;;;0.00;0.00;;;8.90;99.90;;;;;;5052396;28;20177;-62
2022/09/19 05:38:35;;;;;;;0.00;0.00;;;8.90;99.90;;;;;;5052300;28;20636;-62
2022/09/19 05:41:03;;;;;;;0.00;0.00;;;8.90;99.90;;;;;;5052349;28;20641;-63
2022/09/19 05:43:29;;;;;;;0.00;0.00;;;9.00;99.90;;;;;;5051905;28;20213;-63
2022/09/19 05:45:56;;;;;;;0.00;0.00;;;9.00;99.90;;;;;;5051903;28;20185;-62
2022/09/19 05:48:22;;;;;;;0.00;0.00;;;9.10;99.90;;;;;;5052074;28;20189;-62
2022/09/19 05:50:49;;;;;;;0.00;0.00;;;9.10;99.90;;;;;;5052153;28;20201;-63
2022/09/19 05:56:00;;;;;;;0.00;0.00;;;9.20;99.90;;;;;;5052445;28;20184;-62
2022/09/19 05:58:26;;;;;;;0.35;0.35;;;9.30;99.90;;;;;;5051922;28;20196;-62
2022/09/19 06:00:52;;;;;;;0.00;0.00;;;9.40;99.90;;;;;;5052156;28;20192;-62
2022/09/19 06:03:20;;;;;;;0.00;0.00;;;9.50;99.90;;;;;;5051565;28;20237;-62
2022/09/19 06:05:48;;;;;;;0.10;0.10;;;9.60;99.90;;;;;;5051946;28;20271;-62
2022/09/19 06:08:15;;;;;;;0.00;0.00;;;9.60;99.90;;;;;;5051917;28;20200;-63
2022/09/19 06:10:44;;;;;;;0.00;0.00;;;9.70;99.90;;;;;;5051943;28;20187;-62
2022/09/19 06:13:15;;;;;;;0.00;0.00;;;9.70;99.90;;;;;;5051987;28;20183;-62
2022/09/19 06:15:41;;;;;;;0.00;0.00;;;9.80;99.90;;;;;;5051792;28;20601;-62
2022/09/19 06:18:09;;;;;;;0.00;0.00;;;9.80;99.90;;;;;;5051757;28;20226;-62
2022/09/19 06:20:36;;;;;;;0.00;0.00;;;9.80;99.90;;;;;;5051758;28;20178;-62
2022/09/19 06:23:03;;;;;;;0.00;0.00;;;9.80;99.90;;;;;;5051734;28;20647;-62
2022/09/19 06:25:29;;;;;;;0.00;0.00;;;9.90;99.90;;;;;;5051637;28;20166;-62
2022/09/19 06:27:56;;;;;;;0.00;0.00;;;9.90;99.90;;;;;;5055298;28;20188;-62
2022/09/19 06:30:22;;;;;;;0.00;0.00;;;10.00;99.90;;;;;;5055680;28;20185;-62
2022/09/19 06:32:49;;;;;;;0.00;0.00;;;9.90;99.90;;;;;;5055727;28;20174;-62
2022/09/19 06:35:15;;;;;;;0.00;0.00;;;9.90;99.90;;;;;;5055656;28;20249;-62
2022/09/19 06:37:41;;;;;;;0.00;0.00;;;9.90;99.90;;;;;;5055613;28;20311;-63
2022/09/19 06:40:07;;;;;;;0.00;0.00;;;9.80;99.90;;;;;;5055478;28;20177;-62
2022/09/19 06:42:33;;;;;;;0.00;0.00;;;9.70;99.90;;;;;;5055470;28;20196;-62
2022/09/19 06:44:58;;;;;;;0.00;0.00;;;9.70;99.90;;;;;;5055509;28;20173;-62
2022/09/19 06:47:24;;;;;;;0.00;0.00;;;9.70;99.90;;;;;;5053839;28;20181;-62
2022/09/19 06:49:49;;;;;;;0.22;0.22;;;9.80;99.90;;;;;;5055462;28;20223;-62
2022/09/19 06:52:15;;;;;;;0.10;0.10;;;9.80;99.90;;;;;;5055318;28;20666;-62
2022/09/19 06:54:40;;;;;;;0.00;0.00;;;9.90;99.90;;;;;;5055317;28;20165;-62
2022/09/19 06:57:07;;;;;;;0.00;0.00;;;9.90;99.90;;;;;;5055176;28;20175;-62
2022/09/19 06:59:32;;;;;;;0.00;0.00;;;10.00;99.90;;;;;;5055126;28;20193;-63
2022/09/19 07:01:58;;;;;;;0.00;0.00;;;10.10;99.90;;;;;;5054989;28;20189;-62
2022/09/19 07:04:24;;;;;;;0.00;0.00;;;10.10;99.90;;;;;;5055010;28;20185;-62
2022/09/19 07:06:50;;;;;;;0.00;0.00;;;10.20;99.90;;;;;;5055065;28;20200;-62
2022/09/19 07:09:15;;;;;;;0.10;0.10;;;10.20;99.90;;;;;;5055026;28;20177;-62
2022/09/19 07:11:41;;;;;;;0.00;0.00;;;10.30;99.90;;;;;;5055162;28;20271;-62
2022/09/19 07:14:06;;;;;;;0.00;0.00;;;10.50;99.90;;;;;;5054929;28;20257;-62
2022/09/19 07:16:32;;;;;;;0.00;0.00;;;10.60;99.90;;;;;;5054869;28;20174;-62
2022/09/19 07:18:58;;;;;;;0.17;0.17;;;10.80;99.90;;;;;;5054877;28;20179;-63
2022/09/19 07:21:23;;;;;;;0.00;0.00;;;11.00;99.90;;;;;;5054786;28;20659;-63
2022/09/19 07:23:49;;;;;;;0.00;0.00;;;11.10;99.90;;;;;;5054788;28;20547;-62
2022/09/19 07:26:15;;;;;;;0.00;0.00;;;11.10;99.90;;;;;;5054750;28;20528;-62
2022/09/19 07:28:40;;;;;;;0.00;0.00;;;11.10;99.90;;;;;;5054799;28;20188;-62
2022/09/19 07:31:07;;;;;;;0.00;0.00;;;11.00;99.90;;;;;;5054586;28;20182;-62
2022/09/19 07:33:32;;;;;;;0.00;0.00;;;10.90;99.90;;;;;;5054550;28;20182;-62
2022/09/19 07:35:58;;;;;;;0.00;0.00;;;10.90;99.90;;;;;;5054530;28;20544;-62
2022/09/19 07:38:26;;;;;;;0.00;0.00;;;10.80;99.90;;;;;;5053894;28;20219;-62
2022/09/19 07:40:53;;;;;;;0.00;0.00;;;10.80;99.90;;;;;;5054521;28;20189;-62
2022/09/19 07:43:18;;;;;;;0.03;0.03;;;10.80;99.90;;;;;;5054272;28;20200;-63
2022/09/19 07:45:47;;;;;;;0.30;0.10;;;10.80;99.90;;;;;;5054294;28;20177;-62
2022/09/19 07:48:14;;;;;;;0.00;0.00;;;10.90;99.90;;;;;;5054546;28;20520;-62
2022/09/19 07:50:40;;;;;;;0.00;0.00;;;11.00;99.90;;;;;;5054267;28;20248;-62
2022/09/19 07:53:21;;;;;;;0.10;0.10;;;11.00;99.90;;;;;;5054235;28;20269;-62
2022/09/19 07:55:52;;;;;;;0.00;0.00;;;11.10;99.90;;;;;;5054158;28;20207;-62
2022/09/19 07:58:19;;;;;;;0.00;0.00;;;11.10;99.90;;;;;;5054120;28;20173;-62
2022/09/19 08:00:45;;;;;;;0.00;0.00;;;11.10;99.90;;;;;;5054043;28;20233;-62
2022/09/19 08:03:13;;;;;;;0.03;0.03;;;11.20;99.90;;;;;;5053823;28;20268;-62
2022/09/19 08:05:42;;;;;;;0.00;0.00;;;11.20;99.90;;;;;;5053872;28;20174;-62
2022/09/19 08:08:10;;;;;;;0.00;0.00;;;11.20;99.90;;;;;;5053882;28;20185;-62
2022/09/19 08:10:37;;;;;;;0.00;0.00;;;11.20;99.90;;;;;;5053919;28;20205;-62
2022/09/19 08:13:04;;;;;;;0.00;0.00;;;11.30;99.90;;;;;;5053958;28;20232;-62
2022/09/19 08:15:33;;;;;;;0.00;0.00;;;11.40;99.90;;;;;;5053781;28;20181;-62
2022/09/19 08:18:15;;;;;;;0.00;0.00;;;11.50;99.90;;;;;;5053801;28;20173;-61
2022/09/19 08:20:42;;;;;;;0.00;0.00;;;11.60;99.90;;;;;;5053809;28;20213;-61
2022/09/19 08:23:09;;;;;;;0.00;0.00;;;11.80;99.90;;;;;;5053471;28;20210;-62
2022/09/19 08:25:38;;;;;;;0.00;0.00;;;11.90;99.90;;;;;;5053512;28;20189;-61
2022/09/19 08:28:04;;;;;;;0.00;0.00;;;12.10;99.90;;;;;;5053649;28;20311;-61
2022/09/19 08:30:31;;;;;;;0.00;0.00;;;12.20;99.90;;;;;;5053492;28;20184;-61
2022/09/19 08:32:59;;;;;;;0.00;0.00;;;12.10;99.90;;;;;;5053535;28;20196;-61
2022/09/19 08:35:25;;;;;;;0.00;0.00;;;12.10;99.90;;;;;;5053294;28;20220;-61
2022/09/19 08:37:56;;;;;;;0.00;0.00;;;12.10;99.90;;;;;;5053462;28;20265;-61
2022/09/19 08:40:30;;;;;;;0.00;0.00;;;12.10;99.90;;;;;;5053195;28;20188;-61
2022/09/19 08:43:12;;;;;;;0.00;0.00;;;12.00;99.90;;;;;;5053218;28;20213;-61
2022/09/19 08:45:50;;;;;;;0.00;0.00;;;12.00;99.90;;;;;;5053308;28;20300;-61
2022/09/19 08:48:48;;;;;;;0.00;0.00;;;11.90;99.90;;;;;;5052988;28;20187;-61
2022/09/19 08:51:22;;;;;;;0.00;0.00;;;11.90;99.90;;;;;;5043946;28;20194;-61
2022/09/19 08:53:53;;;;;;;0.00;0.00;;;12.00;99.90;;;;;;5053023;28;20230;-61
2022/09/19 08:56:19;;;;;;;0.00;0.00;;;12.10;99.90;;;;;;5053004;28;20185;-61
2022/09/19 08:58:50;;;;;;;0.00;0.00;;;12.10;99.90;;;;;;5052865;28;20549;-61
2022/09/19 09:01:17;;;;;;;0.00;0.00;;;12.20;99.90;;;;;;5053061;28;20259;-61
2022/09/19 09:04:09;;;;;;;0.00;0.00;;;12.20;99.90;;;;;;5052658;28;20267;-61
2022/09/19 09:06:44;;;;;;;0.00;0.00;;;12.30;99.90;;;;;;5052674;28;20236;-61
2022/09/19 09:09:31;;;;;;;0.00;0.00;;;12.40;99.90;;;;;;5052825;28;20177;-61
2022/09/19 09:12:14;;;;;;;0.00;0.00;;;12.60;99.90;;;;;;5052791;28;20256;-61
2022/09/19 09:15:02;;;;;;;0.00;0.00;;;12.80;99.90;;;;;;5052655;28;20177;-62
2022/09/19 09:17:47;;;;;;;0.00;0.00;;;13.10;99.90;;;;;;5052496;28;20529;-62
2022/09/19 09:20:13;;;;;;;0.00;0.00;;;13.30;99.90;;;;;;5052671;28;20708;-61
2022/09/19 09:22:47;;;;;;;0.00;0.00;;;13.50;99.90;;;;;;5052537;28;20319;-62
2022/09/19 09:25:29;;;;;;;0.00;0.00;;;13.70;99.90;;;;;;5052524;28;20663;-61
2022/09/19 09:28:07;;;;;;;0.32;0.15;;;13.80;99.90;;;;;;5052435;28;20505;-61
2022/09/19 09:30:44;;;;;;;0.00;0.00;;;14.10;99.90;;;;;;5052425;28;20280;-61
2022/09/19 09:33:21;;;;;;;0.00;0.00;;;14.20;99.90;;;;;;5052512;28;20235;-62
2022/09/19 09:35:54;;;;;;;0.00;0.00;;;14.20;99.90;;;;;;5052339;28;20185;-61
2022/09/19 09:38:26;;;;;;;0.00;0.00;;;14.30;99.90;;;;;;5052284;28;20661;-62
2022/09/19 09:44:12;;;;;;;0.00;0.00;;;14.60;99.90;;;;;;5051887;28;20220;-61
2022/09/19 09:46:55;;;;;;;0.00;0.00;;;14.60;99.90;;;;;;5052205;28;20768;-61
2022/09/19 09:49:22;;;;;;;0.00;0.00;;;14.80;99.90;;;;;;5052197;28;20185;-61
2022/09/19 09:51:47;;;;;;;0.00;0.00;;;14.80;99.90;;;;;;5052108;28;20182;-62
2022/09/19 09:57:33;;;;;;;0.00;0.00;;;15.00;99.90;;;;;;5052311;28;20181;-62
2022/09/19 10:03:36;;;;;;;0.00;0.00;;;15.80;99.90;;;;;;5052002;28;20282;-61
2022/09/19 10:06:04;;;;;;;0.00;0.00;;;16.30;99.90;;;;;;5052021;28;20181;-61
2022/09/19 10:09:12;;;;;;;0.00;0.00;;;16.70;99.90;;;;;;5051819;28;20629;-61
2022/09/19 10:12:07;;;;;;;0.00;0.00;;;17.00;99.90;;;;;;5051898;28;20181;-62
2022/09/19 10:14:36;;;;;;;0.00;0.00;;;17.00;99.50;;;;;;5051855;28;20632;-62
2022/09/19 10:17:04;;;;;;;0.00;0.00;;;16.80;99.90;;;;;;5051966;28;20181;-61
2022/09/19 10:19:41;;;;;;;0.00;0.00;;;16.60;99.80;;;;;;5051788;28;20181;-61
2022/09/19 10:22:14;;;;;;;0.00;0.00;;;16.50;99.90;;;;;;5051746;28;20510;-61
2022/09/19 10:24:40;;;;;;;0.00;0.00;;;16.30;99.90;;;;;;5051832;28;20186;-62
2022/09/19 10:27:14;;;;;;;0.00;0.00;;;16.40;99.90;;;;;;5051712;28;20174;-62
2022/09/19 10:29:52;;;;;;;0.00;0.00;;;16.20;99.90;;;;;;5051901;28;20182;-62
2022/09/19 10:32:23;;;;;;;0.00;0.00;;;16.20;99.90;;;;;;5051718;28;20177;-62
2022/09/19 10:34:50;;;;;;;0.10;0.10;;;16.30;99.90;;;;;;5050439;28;20188;-62
2022/09/19 10:37:18;;;;;;;0.15;0.15;;;16.20;99.90;;;;;;5051733;28;20254;-62
2022/09/19 10:39:46;;;;;;;0.00;0.00;;;16.20;99.90;;;;;;5051756;28;20173;-62
2022/09/19 10:42:40;;;;;;;0.00;0.00;;;16.50;99.90;;;;;;5051583;28;20185;-62
2022/09/19 10:45:19;;;;;;;0.00;0.00;;;16.60;99.90;;;;;;5050793;28;20193;-62
2022/09/19 10:47:47;;;;;;;0.00;0.00;;;16.90;99.90;;;;;;5051605;28;20192;-62
2022/09/19 10:50:16;;;;;;;0.00;0.00;;;17.00;99.50;;;;;;5051526;28;20264;-62
2022/09/19 10:52:44;;;;;;;0.00;0.00;;;17.10;99.60;;;;;;5051503;28;20216;-61
2022/09/19 10:55:22;;;;;;;0.00;0.00;;;17.10;99.40;;;;;;5051564;28;20178;-62
2022/09/19 10:57:59;;;;;;;0.00;0.00;;;17.20;99.40;;;;;;5051532;28;20185;-62
2022/09/19 11:00:48;;;;;;;0.00;0.00;;;17.10;99.20;;;;;;5051247;28;20280;-61
2022/09/19 11:03:35;;;;;;;0.00;0.00;;;16.90;99.40;;;;;;5051107;28;20248;-62
2022/09/19 11:06:15;;;;;;;0.00;0.00;;;16.80;99.80;;;;;;5051563;28;20181;-62
2022/09/19 11:08:44;;;;;;;0.03;0.03;;;16.90;99.30;;;;;;5051543;28;20200;-62
2022/09/19 11:11:37;;;;;;;0.00;0.00;;;17.00;99.60;;;;;;5051448;28;20577;-62
2022/09/19 11:14:32;;;;;;;0.00;0.00;;;17.00;99.20;;;;;;5054709;28;20186;-62
2022/09/19 11:17:02;;;;;;;0.00;0.00;;;17.10;99.80;;;;;;5055027;28;20183;-62
2022/09/19 11:20:16;;;;;;;0.00;0.00;;;17.30;98.90;;;;;;5054770;28;20515;-62
2022/09/19 11:23:20;;;;;;;0.00;0.00;;;17.50;98.70;;;;;;5054958;28;20263;-62
2022/09/19 11:26:11;;;;;;;0.00;0.00;;;17.60;98.80;;;;;;5054804;28;20199;-62
2022/09/19 11:28:55;;;;;;;0.00;0.00;;;17.80;98.00;;;;;;5054831;28;20629;-62
2022/09/19 11:31:45;;;;;;;0.00;0.00;;;17.70;97.90;;;;;;5054691;28;20174;-61
2022/09/19 11:34:40;;;;;;;0.00;0.00;;;17.40;97.80;;;;;;5054666;28;20264;-62
2022/09/19 11:37:25;;;;;;;0.00;0.00;;;17.40;97.80;;;;;;5054381;28;20255;-62
2022/09/19 11:40:01;;;;;;;0.00;0.00;;;17.00;98.90;;;;;;5054692;28;20174;-61
2022/09/19 11:42:33;;;;;;;0.00;0.00;;;16.70;99.40;;;;;;5054215;28;20189;-62
2022/09/19 11:45:05;;;;;;;0.00;0.00;;;16.30;99.60;;;;;;5054410;28;20724;-61
2022/09/19 11:47:46;;;;;;;0.00;0.00;;;16.10;99.90;;;;;;5054328;28;20174;-61
2022/09/19 11:50:21;;;;;;;0.00;0.00;;;16.00;99.90;;;;;;5054391;28;20260;-61
2022/09/19 11:53:13;;;;;;;0.00;0.00;;;15.90;99.90;;;;;;5054275;28;20165;-61
2022/09/19 11:56:13;;;;;;;0.00;0.00;;;15.80;99.90;;;;;;5054297;28;20513;-61
2022/09/19 11:59:22;;;;;;;0.00;0.00;;;15.70;99.90;;;;;;5054126;28;20678;-61
2022/09/19 12:02:19;;;;;;;0.00;0.00;;;15.70;99.90;;;;;;5050840;28;20720;-61
2022/09/19 12:05:06;;;;;;;0.00;0.00;;;15.90;99.90;;;;;;5054070;28;20205;-61
2022/09/19 12:07:54;;;;;;;0.00;0.00;;;15.90;99.90;;;;;;5053954;28;20575;-61
2022/09/19 12:10:31;;;;;;;0.00;0.00;;;15.90;99.90;;;;;;5053989;28;20185;-61
2022/09/19 12:13:11;;;;;;;0.00;0.00;;;16.00;99.90;;;;;;5053985;28;20169;-61
2022/09/19 12:15:40;;;;;;;0.00;0.00;;;16.10;99.90;;;;;;5053948;28;20185;-61
2022/09/19 12:18:16;;;;;;;0.00;0.00;;;16.40;99.90;;;;;;5053682;28;20188;-62
2022/09/19 12:20:45;;;;;;;0.00;0.00;;;16.80;99.90;;;;;;5052638;28;20173;-61
2022/09/19 12:26:11;;;;;;;0.00;0.00;;;17.00;98.40;;;;;;5053813;28;20569;-62
2022/09/19 12:28:42;;;;;;;0.00;0.00;;;17.10;98.40;;;;;;5053592;28;20177;-62
2022/09/19 12:31:11;;;;;;;0.00;0.00;;;17.20;98.30;;;;;;5053594;28;20593;-61
2022/09/19 12:34:10;;;;;;;0.00;0.00;;;17.20;98.50;;;;;;5053430;28;20182;-61
2022/09/19 12:36:52;;;;;;;0.00;0.00;;;17.00;98.20;;;;;;5053368;28;20184;-61
2022/09/19 12:39:35;;;;;;;0.00;0.00;;;16.60;99.00;;;;;;5053356;28;20178;-61
2022/09/19 12:42:08;;;;;;;0.00;0.00;;;16.30;99.90;;;;;;5053364;28;20540;-61
2022/09/19 12:44:52;;;;;;;0.00;0.00;;;16.10;99.80;;;;;;5053277;28;20229;-62
2022/09/19 12:47:41;;;;;;;0.00;0.00;;;16.00;99.50;;;;;;5053275;28;20533;-61
2022/09/19 12:50:32;;;;;;;0.00;0.00;;;16.10;99.30;;;;;;5053046;28;20282;-61
2022/09/19 12:53:31;;;;;;;0.00;0.00;;;16.20;99.90;;;;;;5053204;28;20208;-61
2022/09/19 12:56:11;;;;;;;0.00;0.00;;;16.20;99.90;;;;;;5053124;28;20185;-61
2022/09/19 12:59:02;;;;;;;0.00;0.00;;;16.30;99.90;;;;;;5053102;28;20177;-61
2022/09/19 13:01:35;;;;;;;0.00;0.00;;;16.40;99.90;;;;;;5052858;28;20260;-62
2022/09/19 13:04:39;;;;;;;0.00;0.00;;;16.40;99.90;;;;;;5052731;28;20758;-61
2022/09/19 13:07:39;;;;;;;0.00;0.00;;;16.50;99.90;;;;;;5052716;28;20671;-61
2022/09/19 13:10:36;;;;;;;0.00;0.00;;;16.50;99.90;;;;;;5033147;28;20649;-61
2022/09/19 13:13:11;;;;;;;0.00;0.00;;;16.10;99.90;;;;;;5052892;28;20204;-61
2022/09/19 13:15:52;;;;;;;0.35;0.35;;;15.90;99.90;;;;;;5052680;28;20242;-61
2022/09/19 13:23:57;;;;;;;0.00;0.00;;;15.30;99.90;;;;;;5052607;28;20238;-61
2022/09/19 13:26:32;;;;;;;0.00;0.00;;;15.40;99.90;;;;;;5052440;28;20185;-61
2022/09/19 13:28:59;;;;;;;0.00;0.00;;;15.60;99.90;;;;;;5052578;28;20551;-61
2022/09/19 13:31:25;;;;;;;0.00;0.00;;;15.70;99.90;;;;;;5052229;28;20185;-61
2022/09/19 13:33:58;;;;;;;0.00;0.00;;;15.90;99.90;;;;;;5052436;28;20189;-61
2022/09/19 13:36:24;;;;;;;0.00;0.00;;;15.90;99.90;;;;;;5051812;28;20184;-61
2022/09/19 13:38:53;;;;;;;0.10;0.10;;;16.10;99.90;;;;;;5045106;28;20178;-62
2022/09/19 13:41:38;;;;;;;0.00;0.00;;;16.20;99.90;;;;;;5046472;28;20552;-62
2022/09/19 13:44:28;;;;;;;0.13;0.05;;;16.30;99.90;;;;;;5045954;28;20213;-62
2022/09/19 13:46:54;;;;;;;0.00;0.00;;;16.30;99.90;;;;;;5035741;28;20170;-62
2022/09/19 13:49:41;;;;;;;0.00;0.00;;;16.20;99.90;;;;;;5035833;28;20185;-61
2022/09/19 13:52:09;;;;;;;0.00;0.00;;;16.10;99.90;;;;;;5032125;28;20182;-60